Strona główna
METAR-TAF:

METAR-TAF

Lotnisko :

Port lotniczy Visby

Visby, Gotlandia, Szwecja

Szerokość geograficzna: 57-40N, Długość geograficzna: 018-21E, wysokość: 51 m

Aktualna obserwacja pogody

Raport powstał 35 minut temu, godzina 21:20 UTC
Wiatr 15 kt od północno-północny wschód
Temperatura 10°C
Wilgotność 76%
Ciśnienie 1026 hPa
Widzialność 10 km lub więcej

METAR: ESSV 302120Z AUTO 03015KT 9999 NCD 10/06 Q1026

czas: 23:55 (21:55 UTC)

Prognoza

Raport powstał 7 godziny i 25 minut temu, godzina 14:30 UTC
Prognoza ważna od 30 godzina 15 UTC do 30 godzina 19 UTC
Wiatr 15 kt od północ w porywach dochodzący do 25 kt
Widzialność 10 km lub więcej
Brak chmur poniżej 1500 m i brak chmur cumulonimbus

TAF: ESSV 301430Z 3015/3019 01015G25KT CAVOK

Obserwacja i prognoza pogody dla ponad 4000 lotnisk (raport METAR i TAF).

Dostępne stacje oznaczono żółtymi i czerwonymi punktami na mapie.

Najedź kursorem aby zobaczyć nazwę stacji.

Kliknij aby zobaczyć obserwacje i prognozy pogody.

Aby zmienić mapę: kliknij na zielony przycisk z czarnym krzyżykiem, aby powiększyć; na zielony przycisk z myślnikiem, aby pomniejszyć; na zielone strzałki, aby przejść do map sąsiednich.


METAR-TAF: